Time;durP1;ratioP1;P1;durP2;ratioP2;P2;SDS_P1;SDS_P2;PMS_P1;PMS_P2;Temp;Humidity;BMP_temperature;BMP_pressure;BME280_temperature;BME280_humidity;BME280_pressure;Samples;Min_cycle;Max_cycle;Signal;HPM_P1;HPM_P2
2022/09/13 00:00:10;;;;;;;2.55;1.50;;;;;;;;;;8327597;28;20084;-58
2022/09/13 00:04:10;;;;;;;1.92;1.77;;;;;;;;;;8330544;28;20050;-59
2022/09/13 00:08:11;;;;;;;1.80;1.70;;;;;;;;;;8329165;28;20508;-59
2022/09/13 00:12:11;;;;;;;1.80;1.70;;;;;;;;;;8327318;28;20144;-58
2022/09/13 00:16:12;;;;;;;2.10;1.70;;;;;;;;;;8325080;28;20555;-58
2022/09/13 00:20:13;;;;;;;1.60;1.50;;;;;;;;;;8323004;28;20036;-58
2022/09/13 00:24:13;;;;;;;1.75;1.65;;;;;;;;;;8325705;28;20051;-59
2022/09/13 00:28:13;;;;;;;2.45;1.75;;;;;;;;;;8326425;28;20033;-58
2022/09/13 00:32:13;;;;;;;5.13;2.00;;;;;;;;;;8327587;28;20136;-59
2022/09/13 00:36:14;;;;;;;1.83;1.73;;;;;;;;;;8329372;28;20020;-58
2022/09/13 00:40:14;;;;;;;3.38;1.67;;;;;;;;;;8329112;28;20046;-58
2022/09/13 00:44:33;;;;;;;3.90;2.00;;;;;;;;;;8324116;28;20033;-58
2022/09/13 00:48:35;;;;;;;2.50;1.55;;;;;;;;;;8324336;28;20033;-59
2022/09/13 00:52:36;;;;;;;2.05;1.95;;;;;;;;;;8330229;28;20021;-59
2022/09/13 00:56:42;;;;;;;2.00;1.90;;;;;;;;;;8323035;28;20037;-58
2022/09/13 01:00:43;;;;;;;2.75;1.98;;;;;;;;;;8326825;28;20630;-58
2022/09/13 01:04:43;;;;;;;2.92;1.90;;;;;;;;;;8324252;28;20035;-58
2022/09/13 01:08:47;;;;;;;1.80;1.70;;;;;;;;;;8324213;28;20029;-59
2022/09/13 01:13:13;;;;;;;3.42;1.67;;;;;;;;;;8323020;28;20059;-59
2022/09/13 01:17:13;;;;;;;3.05;1.80;;;;;;;;;;8324657;28;20533;-58
2022/09/13 01:21:21;;;;;;;2.47;1.80;;;;;;;;;;8325858;28;20040;-58
2022/09/13 01:25:38;;;;;;;3.97;1.83;;;;;;;;;;8323747;28;20057;-58
2022/09/13 01:30:13;;;;;;;1.60;1.50;;;;;;;;;;8326343;28;20021;-59
2022/09/13 01:34:46;;;;;;;1.90;1.80;;;;;;;;;;8272924;28;20044;-59
2022/09/13 01:38:51;;;;;;;1.83;1.73;;;;;;;;;;8304200;28;20048;-57
2022/09/13 01:42:58;;;;;;;2.47;1.80;;;;;;;;;;8323269;28;20029;-58
2022/09/13 01:47:02;;;;;;;1.80;1.70;;;;;;;;;;8324522;28;20231;-58
2022/09/13 01:51:02;;;;;;;1.90;1.80;;;;;;;;;;8323854;28;20021;-59
2022/09/13 01:55:15;;;;;;;3.50;2.03;;;;;;;;;;8325593;28;20021;-58
2022/09/13 01:59:19;;;;;;;2.88;1.67;;;;;;;;;;8321483;28;20189;-58
2022/09/13 02:03:22;;;;;;;2.67;1.80;;;;;;;;;;8324253;28;20183;-58
2022/09/13 02:07:41;;;;;;;1.50;1.50;;;;;;;;;;8322987;28;20110;-58
2022/09/13 02:11:44;;;;;;;9.90;1.98;;;;;;;;;;8323441;28;20100;-59
2022/09/13 02:15:46;;;;;;;2.03;1.70;;;;;;;;;;8325069;28;20036;-58
2022/09/13 02:19:50;;;;;;;2.30;1.80;;;;;;;;;;8322155;28;20207;-58
2022/09/13 02:23:53;;;;;;;3.05;1.77;;;;;;;;;;8323065;28;20031;-58
2022/09/13 02:27:57;;;;;;;1.80;1.70;;;;;;;;;;8324938;28;20047;-58
2022/09/13 02:32:01;;;;;;;1.90;1.80;;;;;;;;;;8325502;28;20781;-60
2022/09/13 02:36:07;;;;;;;2.08;1.98;;;;;;;;;;8329328;28;20103;-58
2022/09/13 02:40:09;;;;;;;2.00;1.80;;;;;;;;;;8330215;28;20141;-59
2022/09/13 02:44:30;;;;;;;2.10;1.90;;;;;;;;;;8331050;28;20368;-58
2022/09/13 02:48:37;;;;;;;4.18;1.75;;;;;;;;;;8328058;28;20047;-58
2022/09/13 02:52:45;;;;;;;1.65;1.55;;;;;;;;;;8328279;28;20367;-59
2022/09/13 02:56:52;;;;;;;3.75;1.95;;;;;;;;;;8328328;28;20394;-58
2022/09/13 03:00:53;;;;;;;2.40;1.85;;;;;;;;;;8327933;28;20041;-58
2022/09/13 03:04:56;;;;;;;4.80;1.70;;;;;;;;;;8330408;28;20068;-58
2022/09/13 03:09:01;;;;;;;1.77;1.67;;;;;;;;;;8328402;28;20033;-57
2022/09/13 03:13:16;;;;;;;3.00;2.08;;;;;;;;;;8330916;28;20370;-58
2022/09/13 03:17:16;;;;;;;;;;;;;;;;;;8327655;28;20040;-58
2022/09/13 03:21:35;;;;;;;2.53;1.77;;;;;;;;;;8329792;28;19913;-58
2022/09/13 03:25:48;;;;;;;3.05;2.10;;;;;;;;;;8329004;28;20973;-59
2022/09/13 03:29:49;;;;;;;2.13;1.75;;;;;;;;;;8328311;28;20461;-58
2022/09/13 03:33:49;;;;;;;2.45;1.70;;;;;;;;;;8289333;28;20069;-58
2022/09/13 03:37:49;;;;;;;3.63;1.70;;;;;;;;;;8276916;28;20049;-58
2022/09/13 03:41:52;;;;;;;1.80;1.70;;;;;;;;;;8275294;28;20083;-58
2022/09/13 03:45:54;;;;;;;1.83;1.73;;;;;;;;;;8276343;28;20160;-58
2022/09/13 03:49:55;;;;;;;4.15;1.63;;;;;;;;;;8274519;28;20025;-59
2022/09/13 03:53:57;;;;;;;2.00;1.85;;;;;;;;;;8273556;28;20788;-58
2022/09/13 03:57:58;;;;;;;2.75;1.80;;;;;;;;;;8274353;28;20087;-58
2022/09/13 04:01:59;;;;;;;3.13;1.98;;;;;;;;;;8274559;28;20235;-58
2022/09/13 04:05:59;;;;;;;2.03;1.85;;;;;;;;;;8276930;28;20137;-58
2022/09/13 04:10:00;;;;;;;3.17;2.42;;;;;;;;;;8276323;28;20515;-59
2022/09/13 04:14:00;;;;;;;3.78;2.10;;;;;;;;;;8288680;28;20037;-58
2022/09/13 04:18:00;;;;;;;2.58;1.70;;;;;;;;;;8274869;28;20111;-58
2022/09/13 04:22:01;;;;;;;1.90;1.77;;;;;;;;;;8274579;28;20172;-58
2022/09/13 04:26:02;;;;;;;2.10;1.90;;;;;;;;;;8275471;28;20040;-59
2022/09/13 04:30:03;;;;;;;1.90;1.80;;;;;;;;;;8273955;28;20469;-59
2022/09/13 04:34:04;;;;;;;2.83;2.05;;;;;;;;;;8273780;28;20032;-59
2022/09/13 04:38:07;;;;;;;2.15;1.95;;;;;;;;;;8275057;28;20022;-59
2022/09/13 04:42:09;;;;;;;4.70;2.00;;;;;;;;;;8272379;28;20029;-59
2022/09/13 04:46:09;;;;;;;4.22;2.17;;;;;;;;;;8272716;28;20060;-59
2022/09/13 04:50:09;;;;;;;6.22;2.13;;;;;;;;;;8270079;28;20131;-58
2022/09/13 04:54:10;;;;;;;2.15;2.03;;;;;;;;;;8270830;28;20021;-59
2022/09/13 04:58:10;;;;;;;1.85;1.75;;;;;;;;;;8273865;28;20880;-58
2022/09/13 05:02:11;;;;;;;2.00;1.90;;;;;;;;;;8269665;28;20044;-58
2022/09/13 05:06:14;;;;;;;1.95;1.73;;;;;;;;;;8269789;28;20041;-58
2022/09/13 05:10:15;;;;;;;2.35;1.85;;;;;;;;;;8286212;28;20473;-58
2022/09/13 05:14:16;;;;;;;2.63;1.83;;;;;;;;;;8269358;28;20810;-59
2022/09/13 05:18:17;;;;;;;3.17;1.93;;;;;;;;;;8270306;28;20129;-58
2022/09/13 05:22:17;;;;;;;1.90;1.80;;;;;;;;;;8270754;28;20057;-58
2022/09/13 05:26:17;;;;;;;3.58;2.10;;;;;;;;;;8270642;28;20037;-59
2022/09/13 05:30:18;;;;;;;4.88;1.90;;;;;;;;;;8270908;28;20029;-58
2022/09/13 05:34:19;;;;;;;2.22;1.95;;;;;;;;;;8272871;28;20603;-58
2022/09/13 05:38:20;;;;;;;1.90;1.80;;;;;;;;;;8273328;28;20063;-60
2022/09/13 05:42:21;;;;;;;1.92;1.83;;;;;;;;;;8272103;28;20048;-58
2022/09/13 05:46:24;;;;;;;2.75;2.05;;;;;;;;;;8269937;28;20046;-58
2022/09/13 05:50:25;;;;;;;4.40;1.90;;;;;;;;;;8272625;28;20032;-58
2022/09/13 05:54:25;;;;;;;3.70;2.00;;;;;;;;;;8284001;28;20310;-57
2022/09/13 05:58:29;;;;;;;;;;;;;;;;;;8270170;28;20037;-57
2022/09/13 06:02:30;;;;;;;1.90;1.75;;;;;;;;;;8268597;28;20023;-57
2022/09/13 06:06:34;;;;;;;4.45;1.90;;;;;;;;;;8272346;28;20033;-58
2022/09/13 06:10:34;;;;;;;2.42;1.85;;;;;;;;;;8276156;28;20021;-57
2022/09/13 06:14:36;;;;;;;5.57;2.00;;;;;;;;;;8277375;28;21023;-57
2022/09/13 06:18:39;;;;;;;1.92;1.75;;;;;;;;;;8276629;28;20132;-59
2022/09/13 06:22:53;;;;;;;3.20;1.80;;;;;;;;;;8276978;28;20133;-58
2022/09/13 06:26:54;;;;;;;2.55;2.00;;;;;;;;;;8278040;28;20026;-58
2022/09/13 06:31:12;;;;;;;2.10;1.90;;;;;;;;;;8276707;28;20515;-58
2022/09/13 06:35:12;;;;;;;1.98;1.65;;;;;;;;;;8281172;28;20021;-58
2022/09/13 06:39:14;;;;;;;2.90;1.55;;;;;;;;;;8277463;28;20066;-59
2022/09/13 06:43:14;;;;;;;4.43;2.00;;;;;;;;;;8276754;28;20754;-59
2022/09/13 06:47:15;;;;;;;2.42;2.20;;;;;;;;;;8276289;28;20042;-58
2022/09/13 06:51:17;;;;;;;3.45;1.95;;;;;;;;;;8271266;28;20041;-58
2022/09/13 06:55:17;;;;;;;2.97;2.17;;;;;;;;;;8275935;28;20026;-58
2022/09/13 06:59:17;;;;;;;2.22;2.05;;;;;;;;;;8287427;28;20111;-58
2022/09/13 07:03:18;;;;;;;2.80;2.13;;;;;;;;;;8272922;28;20180;-59
2022/09/13 07:07:25;;;;;;;3.13;1.95;;;;;;;;;;8272876;28;20482;-58
2022/09/13 07:11:30;;;;;;;2.67;1.90;;;;;;;;;;8270858;28;20040;-58
2022/09/13 07:15:41;;;;;;;1.90;1.80;;;;;;;;;;8271157;28;20095;-58
2022/09/13 07:19:50;;;;;;;2.15;1.92;;;;;;;;;;8273024;28;20049;-59
2022/09/13 07:23:54;;;;;;;2.53;2.20;;;;;;;;;;8271442;28;20034;-57
2022/09/13 07:27:56;;;;;;;2.47;1.80;;;;;;;;;;8272856;28;20020;-58
2022/09/13 07:31:57;;;;;;;6.93;1.90;;;;;;;;;;8267764;28;20052;-58
2022/09/13 07:35:58;;;;;;;3.30;2.28;;;;;;;;;;8271003;28;20129;-58
2022/09/13 07:40:00;;;;;;;2.63;2.42;;;;;;;;;;8268239;28;20029;-58
2022/09/13 07:44:00;;;;;;;6.57;2.80;;;;;;;;;;8270576;28;20677;-59
2022/09/13 07:48:02;;;;;;;3.35;2.70;;;;;;;;;;8271694;28;20037;-58
2022/09/13 07:52:03;;;;;;;4.68;2.92;;;;;;;;;;8285370;28;20022;-58
2022/09/13 07:56:07;;;;;;;4.28;3.53;;;;;;;;;;8274696;28;20028;-58
2022/09/13 08:00:08;;;;;;;3.47;3.15;;;;;;;;;;8270767;28;20461;-58
2022/09/13 08:04:10;;;;;;;4.95;3.90;;;;;;;;;;8268840;28;20053;-59
2022/09/13 08:08:11;;;;;;;6.83;3.60;;;;;;;;;;8270605;28;20473;-58
2022/09/13 08:12:12;;;;;;;8.80;3.13;;;;;;;;;;8267889;28;20793;-60
2022/09/13 08:16:13;;;;;;;3.92;2.50;;;;;;;;;;8265060;28;20045;-57
2022/09/13 08:20:17;;;;;;;4.05;2.40;;;;;;;;;;8265809;28;20273;-57
2022/09/13 08:24:25;;;;;;;3.50;2.42;;;;;;;;;;8265435;28;20169;-59
2022/09/13 08:28:25;;;;;;;4.88;2.42;;;;;;;;;;8272047;28;20057;-58
2022/09/13 08:32:25;;;;;;;2.60;2.40;;;;;;;;;;8269781;28;20030;-57
2022/09/13 08:36:26;;;;;;;2.60;2.40;;;;;;;;;;8268253;28;20025;-58
2022/09/13 08:40:33;;;;;;;5.95;2.25;;;;;;;;;;8269742;28;21366;-58
2022/09/13 08:44:33;;;;;;;2.35;2.08;;;;;;;;;;8270240;28;20053;-60
2022/09/13 08:48:35;;;;;;;3.58;1.98;;;;;;;;;;8310427;28;20928;-60
2022/09/13 08:53:04;;;;;;;2.42;2.22;;;;;;;;;;8301650;28;20028;-59
2022/09/13 08:57:11;;;;;;;4.05;2.15;;;;;;;;;;8290955;28;20502;-59
2022/09/13 09:01:31;;;;;;;4.30;2.47;;;;;;;;;;8296847;28;20060;-60
2022/09/13 09:05:42;;;;;;;7.25;2.30;;;;;;;;;;8286797;28;20040;-59
2022/09/13 09:09:57;;;;;;;4.22;2.30;;;;;;;;;;8290030;28;20048;-60
2022/09/13 09:14:06;;;;;;;3.05;2.10;;;;;;;;;;8288922;28;20022;-59
2022/09/13 09:18:13;;;;;;;9.10;2.35;;;;;;;;;;8284428;28;20989;-60
2022/09/13 09:22:17;;;;;;;3.40;2.22;;;;;;;;;;8281861;28;20157;-59
2022/09/13 09:26:19;;;;;;;8.00;2.40;;;;;;;;;;8288664;28;20482;-59
2022/09/13 09:30:20;;;;;;;8.88;2.50;;;;;;;;;;8277474;28;20052;-59
2022/09/13 09:34:41;;;;;;;7.55;2.45;;;;;;;;;;8288690;28;20029;-58
2022/09/13 09:38:42;;;;;;;9.57;2.63;;;;;;;;;;8288726;28;20504;-59
2022/09/13 09:42:44;;;;;;;3.90;2.05;;;;;;;;;;8288067;28;20704;-58
2022/09/13 09:46:54;;;;;;;2.65;2.35;;;;;;;;;;8289854;28;20045;-59
2022/09/13 09:50:57;;;;;;;4.13;2.00;;;;;;;;;;8285201;28;20029;-59
2022/09/13 09:55:13;;;;;;;5.07;2.10;;;;;;;;;;8294392;28;20033;-61
2022/09/13 09:59:31;;;;;;;2.65;2.00;;;;;;;;;;8277323;28;20045;-61
2022/09/13 10:03:32;;;;;;;3.60;2.15;;;;;;;;;;8285725;28;20108;-59
2022/09/13 10:07:34;;;;;;;5.68;2.17;;;;;;;;;;8288583;28;20025;-60
2022/09/13 10:11:55;;;;;;;3.47;2.03;;;;;;;;;;8285818;28;20092;-59
2022/09/13 10:15:57;;;;;;;5.38;1.98;;;;;;;;;;8288260;28;20041;-59
2022/09/13 10:20:25;;;;;;;2.38;1.92;;;;;;;;;;8290261;28;20025;-60
2022/09/13 10:24:26;;;;;;;4.47;1.85;;;;;;;;;;8283544;28;20037;-59
2022/09/13 10:28:26;;;;;;;2.60;1.83;;;;;;;;;;8284621;28;20599;-59
2022/09/13 10:32:27;;;;;;;3.55;2.08;;;;;;;;;;8285529;28;20041;-60
2022/09/13 10:36:27;;;;;;;4.47;1.80;;;;;;;;;;8287200;28;20036;-60
2022/09/13 10:40:29;;;;;;;7.47;2.30;;;;;;;;;;8286679;28;20070;-59
2022/09/13 10:44:42;;;;;;;5.07;1.80;;;;;;;;;;8285931;28;20030;-59
2022/09/13 10:48:44;;;;;;;2.72;1.70;;;;;;;;;;8285766;28;20045;-60
2022/09/13 10:52:45;;;;;;;3.60;2.20;;;;;;;;;;8290013;28;20032;-59
2022/09/13 10:56:46;;;;;;;3.72;2.03;;;;;;;;;;8293213;28;20037;-59
2022/09/13 11:01:05;;;;;;;5.68;1.77;;;;;;;;;;8293971;28;20042;-59
2022/09/13 11:05:08;;;;;;;4.57;1.80;;;;;;;;;;8293121;28;20033;-60
2022/09/13 11:09:08;;;;;;;;;;;;;;;;;;8295430;28;20030;-61
2022/09/13 11:13:11;;;;;;;4.45;2.50;;;;;;;;;;8293419;28;20678;-59
2022/09/13 11:17:21;;;;;;;12.25;2.38;;;;;;;;;;8291423;28;20037;-60
2022/09/13 11:21:39;;;;;;;3.38;2.40;;;;;;;;;;8292429;28;20085;-60
2022/09/13 11:25:49;;;;;;;4.18;2.42;;;;;;;;;;8293162;28;20401;-60
2022/09/13 11:29:58;;;;;;;5.63;2.10;;;;;;;;;;8290808;28;20184;-60
2022/09/13 11:34:17;;;;;;;2.13;1.90;;;;;;;;;;8289118;28;20041;-60
2022/09/13 11:38:25;;;;;;;5.82;2.05;;;;;;;;;;8299980;28;20040;-60
2022/09/13 11:42:41;;;;;;;3.10;2.53;;;;;;;;;;8296880;28;20052;-61
2022/09/13 11:46:50;;;;;;;4.00;2.58;;;;;;;;;;8292742;28;20953;-60
2022/09/13 11:50:51;;;;;;;4.22;2.38;;;;;;;;;;8296830;28;20104;-60
2022/09/13 11:54:51;;;;;;;3.20;2.35;;;;;;;;;;8294039;28;20078;-60
2022/09/13 11:59:14;;;;;;;4.63;2.08;;;;;;;;;;8296619;28;20394;-60
2022/09/13 12:03:23;;;;;;;4.88;1.90;;;;;;;;;;8285549;28;20080;-60
2022/09/13 12:07:29;;;;;;;4.22;2.00;;;;;;;;;;8296415;28;20060;-59
2022/09/13 12:11:34;;;;;;;2.08;1.88;;;;;;;;;;8297559;28;20031;-61
2022/09/13 12:15:36;;;;;;;3.35;2.00;;;;;;;;;;8295855;28;20510;-62
2022/09/13 12:19:45;;;;;;;4.95;1.80;;;;;;;;;;8293522;28;20025;-61
2022/09/13 12:23:49;;;;;;;3.28;1.80;;;;;;;;;;8300245;28;20041;-63
2022/09/13 12:27:49;;;;;;;4.18;1.80;;;;;;;;;;8295030;28;20026;-62
2022/09/13 12:31:49;;;;;;;3.70;2.20;;;;;;;;;;8294351;28;20860;-64
2022/09/13 12:35:56;;;;;;;2.20;2.00;;;;;;;;;;8294230;28;20031;-64
2022/09/13 12:40:13;;;;;;;2.25;2.03;;;;;;;;;;8295616;28;20480;-65
2022/09/13 12:44:26;;;;;;;3.30;2.03;;;;;;;;;;8297013;28;20033;-65
2022/09/13 12:48:29;;;;;;;2.80;2.00;;;;;;;;;;8319968;28;20608;-63
2022/09/13 12:52:44;;;;;;;1.85;1.50;;;;;;;;;;8326488;28;20120;-63
2022/09/13 12:56:44;;;;;;;3.65;1.80;;;;;;;;;;8329102;28;20043;-63
2022/09/13 13:01:01;;;;;;;2.85;1.60;;;;;;;;;;8325346;28;20067;-63
2022/09/13 13:05:04;;;;;;;1.80;1.70;;;;;;;;;;8325306;28;20120;-63
2022/09/13 13:09:27;;;;;;;2.35;1.80;;;;;;;;;;8329408;28;20032;-64
2022/09/13 13:13:32;;;;;;;1.60;1.50;;;;;;;;;;8318889;28;21128;-64
2022/09/13 13:17:41;;;;;;;1.60;1.50;;;;;;;;;;8324821;28;21051;-61
2022/09/13 13:21:42;;;;;;;2.00;1.30;;;;;;;;;;8326526;28;20119;-61
2022/09/13 13:25:59;;;;;;;3.40;1.30;;;;;;;;;;8326820;28;21021;-62
2022/09/13 13:30:18;;;;;;;4.68;1.60;;;;;;;;;;8324597;28;20353;-62
2022/09/13 13:34:34;;;;;;;4.05;1.65;;;;;;;;;;8275244;28;20776;-62
2022/09/13 13:38:44;;;;;;;4.60;2.75;;;;;;;;;;8272627;28;20038;-62
2022/09/13 13:42:45;;;;;;;5.07;2.17;;;;;;;;;;8273555;28;20798;-63
2022/09/13 13:46:46;;;;;;;2.47;1.60;;;;;;;;;;8277209;28;20642;-61
2022/09/13 13:51:05;;;;;;;1.80;1.50;;;;;;;;;;8291769;28;20072;-62
2022/09/13 13:55:24;;;;;;;3.03;1.50;;;;;;;;;;8295502;28;20034;-62
2022/09/13 13:59:24;;;;;;;2.38;1.60;;;;;;;;;;8292479;28;20144;-63
2022/09/13 14:03:27;;;;;;;4.05;1.50;;;;;;;;;;8287557;28;20033;-60
2022/09/13 14:07:30;;;;;;;7.57;2.75;;;;;;;;;;8287635;28;20111;-60
2022/09/13 14:11:30;;;;;;;;;;;;;;;;;;8289733;28;20033;-63
2022/09/13 14:15:31;;;;;;;4.97;3.28;;;;;;;;;;8290831;28;19917;-63
2022/09/13 14:19:37;;;;;;;6.80;3.92;;;;;;;;;;8285916;28;20029;-61
2022/09/13 14:23:37;;;;;;;4.97;3.30;;;;;;;;;;8286515;28;20030;-61
2022/09/13 14:27:38;;;;;;;6.05;3.72;;;;;;;;;;8292742;28;20076;-61
2022/09/13 14:31:39;;;;;;;6.10;3.22;;;;;;;;;;8291335;28;20033;-62
2022/09/13 14:35:39;;;;;;;8.00;3.13;;;;;;;;;;8298092;28;20168;-62
2022/09/13 14:39:52;;;;;;;5.97;3.10;;;;;;;;;;8295033;28;20025;-62
2022/09/13 14:43:52;;;;;;;4.72;3.55;;;;;;;;;;8292942;28;20084;-61
2022/09/13 14:48:04;;;;;;;6.47;3.72;;;;;;;;;;8295966;28;20042;-61
2022/09/13 14:52:07;;;;;;;4.37;3.23;;;;;;;;;;8295664;28;20025;-60
2022/09/13 14:56:14;;;;;;;6.03;3.83;;;;;;;;;;8296749;28;20904;-61
2022/09/13 15:00:16;;;;;;;6.30;3.47;;;;;;;;;;8298723;28;20088;-61
2022/09/13 15:04:17;;;;;;;7.07;3.70;;;;;;;;;;8297073;28;20041;-60
2022/09/13 15:08:27;;;;;;;5.50;3.72;;;;;;;;;;8293571;28;20041;-60
2022/09/13 15:12:27;;;;;;;3.60;3.00;;;;;;;;;;8295823;28;20048;-60
2022/09/13 15:16:28;;;;;;;4.90;3.13;;;;;;;;;;8296325;28;20798;-60
2022/09/13 15:20:42;;;;;;;6.13;2.95;;;;;;;;;;8298373;28;20329;-61
2022/09/13 15:24:42;;;;;;;;;;;;;;;;;;8292553;28;20040;-60
2022/09/13 15:28:42;;;;;;;4.07;3.60;;;;;;;;;;8298074;28;19917;-60
2022/09/13 15:32:43;;;;;;;4.10;3.08;;;;;;;;;;8296344;28;20610;-60
2022/09/13 15:37:03;;;;;;;8.95;4.10;;;;;;;;;;8292935;28;20025;-60
2022/09/13 15:41:10;;;;;;;3.95;3.50;;;;;;;;;;8288773;28;20065;-61
2022/09/13 15:45:11;;;;;;;8.63;3.47;;;;;;;;;;8295741;28;20782;-62
2022/09/13 15:49:14;;;;;;;8.30;3.70;;;;;;;;;;8297582;28;20520;-62
2022/09/13 15:53:15;;;;;;;3.97;3.55;;;;;;;;;;8292763;28;20029;-61
2022/09/13 15:57:23;;;;;;;3.75;2.75;;;;;;;;;;8295870;28;20027;-60
2022/09/13 16:01:23;;;;;;;4.95;3.35;;;;;;;;;;8289010;28;20161;-61
2022/09/13 16:05:23;;;;;;;5.43;3.10;;;;;;;;;;8292834;28;20130;-60
2022/09/13 16:09:24;;;;;;;9.00;3.30;;;;;;;;;;8292088;28;20737;-61
2022/09/13 16:13:24;;;;;;;7.43;3.30;;;;;;;;;;8295549;28;20807;-61
2022/09/13 16:17:25;;;;;;;3.10;2.75;;;;;;;;;;8290297;28;20122;-60
2022/09/13 16:21:26;;;;;;;3.63;2.67;;;;;;;;;;8291530;28;20029;-61
2022/09/13 16:25:26;;;;;;;3.35;2.78;;;;;;;;;;8290316;28;20041;-61
2022/09/13 16:29:27;;;;;;;5.73;3.63;;;;;;;;;;8287254;28;20140;-60
2022/09/13 16:33:27;;;;;;;4.35;3.20;;;;;;;;;;8289072;28;20033;-61
2022/09/13 16:37:27;;;;;;;4.07;3.13;;;;;;;;;;8290462;28;20701;-61
2022/09/13 16:41:27;;;;;;;4.75;2.78;;;;;;;;;;8289015;28;20032;-60
2022/09/13 16:45:27;;;;;;;5.60;2.97;;;;;;;;;;8288219;28;20048;-61
2022/09/13 16:49:28;;;;;;;4.22;3.53;;;;;;;;;;8284638;28;20068;-60
2022/09/13 16:53:30;;;;;;;5.70;3.23;;;;;;;;;;8286308;28;20128;-60
2022/09/13 16:57:30;;;;;;;3.57;3.27;;;;;;;;;;8288955;28;20770;-61
2022/09/13 17:01:31;;;;;;;4.47;2.70;;;;;;;;;;8289079;28;20484;-60
2022/09/13 17:05:31;;;;;;;3.50;3.13;;;;;;;;;;8287349;28;20391;-60
2022/09/13 17:09:34;;;;;;;6.32;3.30;;;;;;;;;;8288753;28;20029;-61
2022/09/13 17:13:34;;;;;;;;;;;;;;;;;;8285571;28;20036;-61
2022/09/13 17:17:35;;;;;;;3.35;2.70;;;;;;;;;;8291511;28;20511;-60
2022/09/13 17:21:35;;;;;;;5.32;2.95;;;;;;;;;;8287303;28;20033;-60
2022/09/13 17:25:35;;;;;;;4.78;2.97;;;;;;;;;;8290150;28;20029;-60
2022/09/13 17:29:35;;;;;;;5.25;2.70;;;;;;;;;;8288365;28;20486;-61
2022/09/13 17:33:43;;;;;;;4.75;3.00;;;;;;;;;;8292755;28;20680;-61
2022/09/13 17:37:45;;;;;;;4.38;3.10;;;;;;;;;;8287670;28;20021;-61
2022/09/13 17:41:47;;;;;;;5.97;3.70;;;;;;;;;;8286281;28;20512;-61
2022/09/13 17:45:47;;;;;;;4.47;3.22;;;;;;;;;;8294866;28;20041;-61
2022/09/13 17:49:47;;;;;;;5.95;3.60;;;;;;;;;;8288044;28;20325;-60
2022/09/13 17:53:49;;;;;;;5.45;3.38;;;;;;;;;;8288811;28;20032;-60
2022/09/13 17:57:49;;;;;;;3.40;3.10;;;;;;;;;;8289932;28;20741;-61
2022/09/13 18:01:51;;;;;;;5.70;3.60;;;;;;;;;;8290039;28;20116;-60
2022/09/13 18:05:55;;;;;;;3.88;3.40;;;;;;;;;;8295912;28;20151;-60
2022/09/13 18:09:56;;;;;;;4.15;3.38;;;;;;;;;;8293608;28;20064;-61
2022/09/13 18:13:56;;;;;;;5.47;3.05;;;;;;;;;;8296517;28;20029;-61
2022/09/13 18:17:56;;;;;;;5.00;3.77;;;;;;;;;;8294757;28;20082;-61
2022/09/13 18:21:56;;;;;;;7.40;3.67;;;;;;;;;;8294611;28;20642;-61
2022/09/13 18:25:57;;;;;;;4.47;3.38;;;;;;;;;;8298979;28;20033;-62
2022/09/13 18:29:57;;;;;;;5.65;3.78;;;;;;;;;;8293304;28;20086;-60
2022/09/13 18:33:59;;;;;;;3.85;3.53;;;;;;;;;;8293634;28;20045;-61
2022/09/13 18:38:00;;;;;;;4.97;3.53;;;;;;;;;;8292839;28;20640;-61
2022/09/13 18:42:00;;;;;;;4.78;3.60;;;;;;;;;;8293999;28;20367;-61
2022/09/13 18:46:03;;;;;;;8.55;3.92;;;;;;;;;;8292991;28;20083;-61
2022/09/13 18:50:04;;;;;;;5.87;3.93;;;;;;;;;;8294916;28;20060;-60
2022/09/13 18:54:05;;;;;;;8.07;3.80;;;;;;;;;;8294898;28;21200;-61
2022/09/13 18:58:05;;;;;;;4.20;3.63;;;;;;;;;;8292964;28;20900;-62
2022/09/13 19:02:05;;;;;;;7.45;4.00;;;;;;;;;;8295016;28;20041;-61
2022/09/13 19:06:13;;;;;;;9.30;4.45;;;;;;;;;;8294346;28;20028;-61
2022/09/13 19:10:13;;;;;;;12.43;4.25;;;;;;;;;;8294307;28;20162;-64
2022/09/13 19:14:14;;;;;;;8.35;4.07;;;;;;;;;;8292851;28;20112;-60
2022/09/13 19:18:14;;;;;;;10.05;4.07;;;;;;;;;;8291705;28;20113;-60
2022/09/13 19:22:14;;;;;;;8.52;4.20;;;;;;;;;;8289497;28;20465;-61
2022/09/13 19:26:16;;;;;;;6.43;3.97;;;;;;;;;;8291951;28;20041;-61
2022/09/13 19:30:17;;;;;;;9.75;4.53;;;;;;;;;;8291583;28;20030;-61
2022/09/13 19:34:18;;;;;;;11.88;3.97;;;;;;;;;;8291779;28;20097;-61
2022/09/13 19:38:18;;;;;;;10.57;4.28;;;;;;;;;;8291704;28;20021;-61
2022/09/13 19:42:18;;;;;;;12.18;3.85;;;;;;;;;;8293515;28;20024;-61
2022/09/13 19:46:19;;;;;;;6.40;3.70;;;;;;;;;;8284748;28;20049;-61
2022/09/13 19:50:19;;;;;;;8.90;3.92;;;;;;;;;;8290208;28;20044;-60
2022/09/13 19:54:20;;;;;;;14.15;4.10;;;;;;;;;;8288323;28;20026;-60
2022/09/13 19:58:20;;;;;;;10.93;4.25;;;;;;;;;;8293084;28;20341;-61
2022/09/13 20:02:20;;;;;;;11.02;3.95;;;;;;;;;;8292930;28;20056;-61
2022/09/13 20:06:23;;;;;;;8.02;4.18;;;;;;;;;;8289253;28;20049;-61
2022/09/13 20:10:24;;;;;;;;;;;;;;;;;;8287449;28;20755;-60
2022/09/13 20:14:24;;;;;;;9.40;3.60;;;;;;;;;;8290922;28;19960;-60
2022/09/13 20:18:25;;;;;;;8.70;4.00;;;;;;;;;;8288089;28;20065;-60
2022/09/13 20:22:25;;;;;;;6.50;3.03;;;;;;;;;;8285761;28;20528;-61
2022/09/13 20:26:25;;;;;;;5.15;3.17;;;;;;;;;;8289516;28;20133;-60
2022/09/13 20:30:26;;;;;;;10.23;3.60;;;;;;;;;;8285311;28;20182;-60
2022/09/13 20:34:26;;;;;;;3.45;2.50;;;;;;;;;;8291937;28;20048;-60
2022/09/13 20:38:27;;;;;;;3.70;2.70;;;;;;;;;;8289364;28;20144;-61
2022/09/13 20:42:28;;;;;;;2.85;2.50;;;;;;;;;;8286803;28;20496;-60
2022/09/13 20:46:30;;;;;;;2.35;2.13;;;;;;;;;;8286691;28;20049;-61
2022/09/13 20:50:30;;;;;;;4.05;2.58;;;;;;;;;;8290370;28;20051;-61
2022/09/13 20:54:30;;;;;;;2.70;2.50;;;;;;;;;;8288779;28;20029;-61
2022/09/13 20:58:31;;;;;;;2.30;2.10;;;;;;;;;;8288881;28;20040;-60
2022/09/13 21:02:31;;;;;;;5.22;2.05;;;;;;;;;;8280352;28;20041;-61
2022/09/13 21:06:35;;;;;;;3.13;1.87;;;;;;;;;;8287304;28;20110;-60
2022/09/13 21:10:35;;;;;;;3.25;2.10;;;;;;;;;;8293386;28;20291;-61
2022/09/13 21:14:36;;;;;;;3.35;1.90;;;;;;;;;;8289727;28;20036;-60
2022/09/13 21:18:36;;;;;;;2.00;1.83;;;;;;;;;;8288798;28;20049;-61
2022/09/13 21:22:36;;;;;;;1.63;1.52;;;;;;;;;;8289860;28;20037;-61
2022/09/13 21:26:41;;;;;;;3.92;1.70;;;;;;;;;;8289481;28;20459;-61
2022/09/13 21:30:41;;;;;;;2.00;1.80;;;;;;;;;;8286607;28;20116;-61
2022/09/13 21:34:42;;;;;;;2.83;2.20;;;;;;;;;;8289911;28;20028;-60
2022/09/13 21:38:43;;;;;;;2.08;1.85;;;;;;;;;;8289913;28;20973;-61
2022/09/13 21:42:43;;;;;;;1.58;1.48;;;;;;;;;;8287426;28;20134;-60
2022/09/13 21:46:43;;;;;;;2.88;1.70;;;;;;;;;;8292323;28;20036;-60
2022/09/13 21:50:43;;;;;;;4.43;1.80;;;;;;;;;;8287525;28;20135;-61
2022/09/13 21:54:44;;;;;;;3.20;1.88;;;;;;;;;;8286537;28;20026;-61
2022/09/13 21:58:48;;;;;;;3.13;2.10;;;;;;;;;;8288707;28;20049;-61
2022/09/13 22:02:48;;;;;;;4.10;2.60;;;;;;;;;;8287192;28;20268;-60
2022/09/13 22:06:52;;;;;;;3.93;2.70;;;;;;;;;;8290214;28;20029;-60
2022/09/13 22:10:52;;;;;;;3.13;2.85;;;;;;;;;;8291352;28;20024;-61
2022/09/13 22:14:52;;;;;;;7.70;3.53;;;;;;;;;;8294393;28;20052;-60
2022/09/13 22:18:57;;;;;;;4.32;2.30;;;;;;;;;;8289635;28;20098;-61
2022/09/13 22:22:58;;;;;;;3.38;3.08;;;;;;;;;;8290882;28;20029;-61
2022/09/13 22:26:58;;;;;;;5.88;4.75;;;;;;;;;;8293578;28;21016;-60
2022/09/13 22:31:03;;;;;;;6.13;4.38;;;;;;;;;;8293558;28;20033;-60
2022/09/13 22:35:05;;;;;;;5.10;3.88;;;;;;;;;;8291892;28;20028;-61
2022/09/13 22:39:05;;;;;;;3.25;2.92;;;;;;;;;;8291334;28;20491;-61
2022/09/13 22:43:05;;;;;;;5.75;3.92;;;;;;;;;;8289930;28;20018;-59
2022/09/13 22:47:06;;;;;;;8.57;3.70;;;;;;;;;;8292002;28;20033;-62
2022/09/13 22:51:07;;;;;;;8.82;4.25;;;;;;;;;;8297645;28;20037;-61
2022/09/13 22:55:07;;;;;;;6.82;4.80;;;;;;;;;;8294705;28;20029;-60
2022/09/13 22:59:11;;;;;;;8.10;4.28;;;;;;;;;;8296341;28;20022;-61
2022/09/13 23:03:12;;;;;;;5.13;3.40;;;;;;;;;;8295628;28;20049;-61
2022/09/13 23:07:12;;;;;;;5.07;3.55;;;;;;;;;;8292084;28;20796;-61
2022/09/13 23:11:17;;;;;;;7.25;3.88;;;;;;;;;;8295759;28;20095;-61
2022/09/13 23:15:18;;;;;;;4.47;4.07;;;;;;;;;;8297325;28;20108;-62
2022/09/13 23:19:20;;;;;;;7.88;4.53;;;;;;;;;;8299844;28;20036;-61
2022/09/13 23:23:20;;;;;;;8.77;5.55;;;;;;;;;;8294025;28;20061;-61
2022/09/13 23:27:21;;;;;;;5.88;5.28;;;;;;;;;;8298635;28;20096;-62
2022/09/13 23:31:23;;;;;;;7.45;4.55;;;;;;;;;;8293967;28;20140;-61
2022/09/13 23:35:23;;;;;;;5.65;4.45;;;;;;;;;;8300026;28;20053;-61
2022/09/13 23:39:25;;;;;;;4.47;4.07;;;;;;;;;;8296327;28;20029;-61
2022/09/13 23:43:26;;;;;;;4.82;3.83;;;;;;;;;;8295676;28;20141;-61
2022/09/13 23:47:26;;;;;;;5.20;4.13;;;;;;;;;;8296376;28;20095;-61
2022/09/13 23:51:26;;;;;;;4.43;3.92;;;;;;;;;;8296157;28;20025;-60
2022/09/13 23:55:26;;;;;;;6.13;4.30;;;;;;;;;;8298188;28;20053;-61
2022/09/13 23:59:26;;;;;;;8.55;4.30;;;;;;;;;;8295672;28;20043;-60
